Time;durP1;ratioP1;P1;durP2;ratioP2;P2;SDS_P1;SDS_P2;PMS_P1;PMS_P2;Temp;Humidity;BMP_temperature;BMP_pressure;BME280_temperature;BME280_humidity;BME280_pressure;Samples;Min_cycle;Max_cycle;Signal;HPM_P1;HPM_P2
2023/10/28 00:01:26;;;;;;;6.17;1.10;;;19.10;52.40;;;;;;5052335;28;20183;-70
2023/10/28 00:03:54;;;;;;;8.07;1.80;;;19.30;52.00;;;;;;5051759;28;20706;-69
2023/10/28 00:06:21;;;;;;;5.40;1.33;;;19.50;52.10;;;;;;5042040;28;20638;-69
2023/10/28 00:08:49;;;;;;;4.97;1.07;;;19.50;50.70;;;;;;5049335;28;20538;-71
2023/10/28 00:11:19;;;;;;;3.70;1.00;;;19.40;50.80;;;;;;5051477;28;20191;-70
2023/10/28 00:13:50;;;;;;;4.50;1.30;;;19.70;50.40;;;;;;5052421;28;20194;-70
2023/10/28 00:16:17;;;;;;;3.00;1.03;;;19.80;49.60;;;;;;5053267;28;20228;-68
2023/10/28 00:18:45;;;;;;;3.37;1.10;;;19.80;48.80;;;;;;5052379;28;20215;-69
2023/10/28 00:21:17;;;;;;;4.63;1.27;;;19.70;48.30;;;;;;5049730;28;20258;-68
2023/10/28 00:23:48;;;;;;;3.93;0.90;;;19.80;48.80;;;;;;5052738;28;20259;-70
2023/10/28 00:26:15;;;;;;;5.50;1.33;;;19.80;48.20;;;;;;5052972;28;20176;-73
2023/10/28 00:28:42;;;;;;;7.73;1.20;;;19.80;48.50;;;;;;5050162;28;20659;-71
2023/10/28 00:31:16;;;;;;;3.33;1.20;;;20.00;47.50;;;;;;5052304;28;20207;-67
2023/10/28 00:33:44;;;;;;;3.07;0.90;;;19.70;47.70;;;;;;5051982;28;20267;-69
2023/10/28 00:36:14;;;;;;;5.30;1.07;;;19.70;47.80;;;;;;5050179;28;20630;-69
2023/10/28 00:38:41;;;;;;;2.07;0.80;;;19.70;47.50;;;;;;5048270;28;20202;-68
2023/10/28 00:41:09;;;;;;;3.77;1.00;;;19.70;47.70;;;;;;5053342;28;20237;-69
2023/10/28 00:43:36;;;;;;;2.80;1.03;;;20.00;47.50;;;;;;5052498;28;20273;-67
2023/10/28 00:46:07;;;;;;;4.13;0.93;;;20.00;46.60;;;;;;5051457;28;20218;-67
2023/10/28 00:48:35;;;;;;;5.50;0.87;;;20.30;46.00;;;;;;5052196;28;20180;-68
2023/10/28 00:51:02;;;;;;;3.00;1.13;;;20.10;46.10;;;;;;5050986;28;20282;-69
2023/10/28 00:53:31;;;;;;;2.07;0.90;;;20.10;45.80;;;;;;5053952;28;20207;-70
2023/10/28 00:55:59;;;;;;;3.67;1.13;;;20.10;46.30;;;;;;5051764;28;20210;-70
2023/10/28 00:58:28;;;;;;;2.73;0.83;;;20.00;46.30;;;;;;5048308;28;20610;-69
2023/10/28 01:00:55;;;;;;;3.77;0.80;;;20.10;46.10;;;;;;5052363;28;20234;-69
2023/10/28 01:03:22;;;;;;;3.13;1.07;;;20.40;45.40;;;;;;5052141;28;20279;-70
2023/10/28 01:05:52;;;;;;;3.33;1.60;;;20.50;44.70;;;;;;5052047;28;20543;-71
2023/10/28 01:08:20;;;;;;;4.83;1.10;;;20.70;44.50;;;;;;5044919;28;20184;-73
2023/10/28 01:10:47;;;;;;;3.70;0.93;;;20.90;44.90;;;;;;5052905;28;20668;-69
2023/10/28 01:13:14;;;;;;;5.93;1.03;;;20.80;44.60;;;;;;5052334;28;20199;-68
2023/10/28 01:15:42;;;;;;;4.47;1.10;;;20.80;44.70;;;;;;5054166;28;20184;-74
2023/10/28 01:18:10;;;;;;;4.77;0.93;;;20.80;44.50;;;;;;5050545;28;20199;-72
2023/10/28 01:20:37;;;;;;;3.43;0.93;;;20.80;44.10;;;;;;5052475;28;20200;-73
2023/10/28 01:23:05;;;;;;;3.73;1.20;;;20.90;45.20;;;;;;5052313;28;20683;-67
2023/10/28 01:25:32;;;;;;;2.60;1.00;;;20.80;44.40;;;;;;5052122;28;20180;-69
2023/10/28 01:27:59;;;;;;;4.97;1.10;;;20.50;44.60;;;;;;5052055;28;20205;-72
2023/10/28 01:30:27;;;;;;;7.00;1.67;;;20.60;45.50;;;;;;5051610;28;20183;-68
2023/10/28 01:32:54;;;;;;;3.90;1.00;;;20.60;45.40;;;;;;5052003;28;20203;-70
2023/10/28 01:35:22;;;;;;;3.93;1.07;;;20.50;46.40;;;;;;5051809;28;20180;-72
2023/10/28 01:37:49;;;;;;;5.87;1.43;;;20.70;47.50;;;;;;5051491;28;20255;-70
2023/10/28 01:40:17;;;;;;;7.83;1.57;;;20.30;47.70;;;;;;5053041;28;20190;-70
2023/10/28 01:42:45;;;;;;;5.93;1.33;;;20.70;47.10;;;;;;5051193;28;20184;-69
2023/10/28 01:45:15;;;;;;;4.17;1.30;;;20.70;46.70;;;;;;5052115;28;20185;-70
2023/10/28 01:47:44;;;;;;;3.97;1.43;;;20.80;47.60;;;;;;5050603;28;20180;-68
2023/10/28 01:50:12;;;;;;;5.93;1.40;;;20.50;49.00;;;;;;5050750;28;20180;-69
2023/10/28 01:52:40;;;;;;;4.63;1.17;;;20.70;47.70;;;;;;5055788;28;20556;-69
2023/10/28 01:55:11;;;;;;;4.03;1.20;;;20.80;47.10;;;;;;5055808;28;20267;-72
2023/10/28 01:57:39;;;;;;;4.00;1.20;;;20.80;47.00;;;;;;5055183;28;20199;-69
2023/10/28 02:00:12;;;;;;;3.77;1.10;;;21.00;47.20;;;;;;5055634;28;20216;-69
2023/10/28 02:02:41;;;;;;;3.03;1.10;;;20.80;49.10;;;;;;5055752;28;20572;-70
2023/10/28 02:05:09;;;;;;;4.10;1.10;;;20.90;49.00;;;;;;5051268;28;20191;-72
2023/10/28 02:07:36;;;;;;;8.90;1.57;;;20.90;48.60;;;;;;5054948;28;20196;-70
2023/10/28 02:10:05;;;;;;;2.93;1.30;;;21.00;48.90;;;;;;5055804;28;20593;-68
2023/10/28 02:12:34;;;;;;;3.63;1.50;;;21.20;49.10;;;;;;5055668;28;20215;-70
2023/10/28 02:15:05;;;;;;;4.77;1.10;;;21.50;48.80;;;;;;5052813;28;20191;-70
2023/10/28 02:17:35;;;;;;;3.53;1.27;;;21.50;47.90;;;;;;5053774;28;20179;-72
2023/10/28 02:20:04;;;;;;;5.60;1.30;;;21.10;47.70;;;;;;5055022;28;20179;-71
2023/10/28 02:22:32;;;;;;;2.60;1.03;;;20.90;48.20;;;;;;5052325;28;20690;-70
2023/10/28 02:24:59;;;;;;;3.00;1.07;;;21.00;47.60;;;;;;5047634;28;20203;-71
2023/10/28 02:27:27;;;;;;;3.67;1.07;;;21.30;46.60;;;;;;5050297;28;20180;-69
2023/10/28 02:29:54;;;;;;;3.47;1.00;;;21.50;46.00;;;;;;5056316;28;20214;-70
2023/10/28 02:32:21;;;;;;;3.37;1.00;;;21.30;45.10;;;;;;5062824;28;20270;-70
2023/10/28 02:34:48;;;;;;;2.47;0.80;;;21.20;45.50;;;;;;5062959;28;20262;-72
2023/10/28 02:37:16;;;;;;;4.17;0.90;;;21.20;45.40;;;;;;5060029;28;20223;-69
2023/10/28 02:39:43;;;;;;;2.60;0.80;;;21.60;43.90;;;;;;5058561;28;20183;-70
2023/10/28 02:42:10;;;;;;;1.87;1.00;;;21.80;44.00;;;;;;5066229;28;20654;-67
2023/10/28 02:44:38;;;;;;;2.30;0.97;;;22.00;42.30;;;;;;5063030;28;20246;-71
2023/10/28 02:47:05;;;;;;;3.83;1.10;;;21.80;42.50;;;;;;5055576;28;20180;-68
2023/10/28 02:49:35;;;;;;;2.63;0.80;;;21.10;43.40;;;;;;5055670;28;20548;-70
2023/10/28 02:52:03;;;;;;;3.17;1.03;;;20.90;44.60;;;;;;5056704;28;20176;-67
2023/10/28 02:54:30;;;;;;;3.90;0.90;;;21.50;44.60;;;;;;5060172;28;20645;-71
2023/10/28 02:56:57;;;;;;;3.60;1.00;;;21.80;44.00;;;;;;5056421;28;20242;-69
2023/10/28 02:59:25;;;;;;;3.60;1.47;;;21.80;44.30;;;;;;5055405;28;20642;-68
2023/10/28 03:01:52;;;;;;;3.03;0.87;;;22.00;44.40;;;;;;5054305;28;20250;-69
2023/10/28 03:04:19;;;;;;;4.27;1.10;;;22.70;43.50;;;;;;5053960;28;20242;-71
2023/10/28 03:06:47;;;;;;;4.13;1.13;;;23.10;42.70;;;;;;5054130;28;20279;-68
2023/10/28 03:09:14;;;;;;;4.13;1.10;;;22.70;43.10;;;;;;5055423;28;20188;-70
2023/10/28 03:11:42;;;;;;;4.53;1.03;;;22.80;44.30;;;;;;5054881;28;20188;-72
2023/10/28 03:14:09;;;;;;;4.33;1.23;;;23.10;43.50;;;;;;5057428;28;20558;-70
2023/10/28 03:16:38;;;;;;;6.10;1.10;;;22.80;44.20;;;;;;5053907;28;20286;-72
2023/10/28 03:19:06;;;;;;;4.13;1.00;;;22.80;46.50;;;;;;5059000;28;20191;-73
2023/10/28 03:21:34;;;;;;;3.13;1.20;;;23.30;46.20;;;;;;5061534;28;20626;-67
2023/10/28 03:24:02;;;;;;;4.60;1.20;;;23.10;47.10;;;;;;5053445;28;20231;-70
2023/10/28 03:26:29;;;;;;;2.53;1.13;;;23.30;46.40;;;;;;5052991;28;20180;-68
2023/10/28 03:28:57;;;;;;;3.10;0.90;;;23.00;46.60;;;;;;5055749;28;20650;-69
2023/10/28 03:31:24;;;;;;;3.37;1.30;;;22.70;47.10;;;;;;5051858;28;20207;-70
2023/10/28 03:33:51;;;;;;;4.97;1.40;;;21.80;49.50;;;;;;5055746;28;20188;-68
2023/10/28 03:36:19;;;;;;;4.37;1.23;;;21.40;50.50;;;;;;5057742;28;20189;-73
2023/10/28 03:38:46;;;;;;;5.10;1.20;;;21.20;53.40;;;;;;5057257;28;20211;-71
2023/10/28 03:41:13;;;;;;;3.60;1.20;;;21.20;53.70;;;;;;5055163;28;20274;-71
2023/10/28 03:43:41;;;;;;;6.60;1.33;;;21.10;54.20;;;;;;5050604;28;20691;-74
2023/10/28 03:46:26;;;;;;;4.43;1.47;;;20.50;55.50;;;;;;5066780;28;20176;-67
2023/10/28 03:48:54;;;;;;;8.10;1.50;;;20.30;55.50;;;;;;5053030;28;20187;-66
2023/10/28 03:51:26;;;;;;;3.27;1.37;;;20.00;55.90;;;;;;5053221;28;21508;-67
2023/10/28 03:53:53;;;;;;;4.93;1.20;;;20.00;55.80;;;;;;5042691;28;20184;-66
2023/10/28 03:56:20;;;;;;;3.07;1.10;;;19.80;56.50;;;;;;5052684;28;20188;-66
2023/10/28 03:58:47;;;;;;;3.20;0.93;;;19.70;56.00;;;;;;5051749;28;20203;-66
2023/10/28 04:01:15;;;;;;;3.93;1.33;;;19.80;56.70;;;;;;5052461;28;20184;-66
2023/10/28 04:03:43;;;;;;;3.00;1.13;;;19.70;56.80;;;;;;5051531;28;20223;-68
2023/10/28 04:06:10;;;;;;;6.83;1.23;;;19.50;57.20;;;;;;5051387;28;20196;-65
2023/10/28 04:08:37;;;;;;;4.23;1.30;;;19.70;57.50;;;;;;5048287;28;20206;-65
2023/10/28 04:11:05;;;;;;;6.70;1.17;;;19.90;56.10;;;;;;5059175;28;20273;-66
2023/10/28 04:13:33;;;;;;;3.43;0.90;;;20.00;55.60;;;;;;5051074;28;20542;-65
2023/10/28 04:16:00;;;;;;;4.17;1.20;;;19.80;55.90;;;;;;5050979;28;20201;-66
2023/10/28 04:18:29;;;;;;;5.50;1.37;;;20.00;56.30;;;;;;5043362;28;20640;-65
2023/10/28 04:20:56;;;;;;;5.90;1.40;;;20.20;54.60;;;;;;5047302;28;20605;-66
2023/10/28 04:23:23;;;;;;;5.53;1.40;;;20.40;54.00;;;;;;5050137;28;20212;-67
2023/10/28 04:25:52;;;;;;;4.33;1.10;;;20.80;53.10;;;;;;5046783;28;20188;-65
2023/10/28 04:28:21;;;;;;;5.87;1.10;;;20.80;51.40;;;;;;5046597;28;20208;-66
2023/10/28 04:30:58;;;;;;;2.07;0.80;;;21.00;51.50;;;;;;5050717;28;20274;-67
2023/10/28 04:33:26;;;;;;;4.93;0.90;;;21.80;49.50;;;;;;5063888;28;20636;-67
2023/10/28 04:35:54;;;;;;;2.53;0.90;;;22.10;48.40;;;;;;5071127;28;20210;-68
2023/10/28 04:38:22;;;;;;;2.13;0.77;;;22.60;46.10;;;;;;5066964;28;20231;-65
2023/10/28 04:40:52;;;;;;;3.53;0.90;;;22.80;45.80;;;;;;5060062;28;20735;-66
2023/10/28 04:43:20;;;;;;;4.00;0.93;;;22.30;45.30;;;;;;5072646;28;20203;-66
2023/10/28 04:45:48;;;;;;;2.37;0.77;;;22.70;45.90;;;;;;5038075;28;20602;-66
2023/10/28 04:48:15;;;;;;;3.77;0.90;;;23.50;44.70;;;;;;5063071;28;20184;-66
2023/10/28 04:50:45;;;;;;;4.57;1.03;;;24.70;41.80;;;;;;5064490;28;20219;-67
2023/10/28 04:53:12;;;;;;;3.13;1.00;;;24.00;41.60;;;;;;5059287;28;20572;-68
2023/10/28 04:55:41;;;;;;;4.30;0.93;;;22.80;43.90;;;;;;5066400;28;20187;-67
2023/10/28 04:58:08;;;;;;;6.80;1.00;;;23.20;43.60;;;;;;5053003;28;20617;-67
2023/10/28 05:00:36;;;;;;;5.07;0.90;;;22.40;43.80;;;;;;5065685;28;20207;-67
2023/10/28 05:03:03;;;;;;;5.33;1.10;;;22.30;45.00;;;;;;5067891;28;20271;-68
2023/10/28 05:05:31;;;;;;;3.57;0.80;;;22.80;44.50;;;;;;5060985;28;20278;-68
2023/10/28 05:08:01;;;;;;;3.43;0.90;;;23.30;43.30;;;;;;5060996;28;20194;-68
2023/10/28 05:10:28;;;;;;;3.10;1.07;;;22.50;45.60;;;;;;5068272;28;20206;-67
2023/10/28 05:12:56;;;;;;;3.07;0.77;;;23.40;43.60;;;;;;5058458;28;20182;-67
2023/10/28 05:15:23;;;;;;;4.57;0.93;;;22.90;44.60;;;;;;5061968;28;20182;-68
2023/10/28 05:17:50;;;;;;;5.63;0.93;;;23.30;44.10;;;;;;5070965;28;20179;-66
2023/10/28 05:20:18;;;;;;;1.90;0.70;;;23.00;44.10;;;;;;5071340;28;20182;-68
2023/10/28 05:22:45;;;;;;;2.83;1.10;;;23.20;43.80;;;;;;5069638;28;20221;-69
2023/10/28 05:25:13;;;;;;;4.33;0.87;;;23.30;44.50;;;;;;5059313;28;20187;-68
2023/10/28 05:27:41;;;;;;;4.23;0.80;;;22.80;45.80;;;;;;5071375;28;20629;-68
2023/10/28 05:30:11;;;;;;;7.17;1.10;;;23.10;46.60;;;;;;5065140;28;20262;-68
2023/10/28 05:32:39;;;;;;;6.43;1.00;;;23.30;46.20;;;;;;5061388;28;20183;-70
2023/10/28 05:35:11;;;;;;;1.60;0.60;;;23.40;46.00;;;;;;5058756;28;20237;-68
2023/10/28 05:37:38;;;;;;;3.43;1.10;;;23.00;47.90;;;;;;5060530;28;20317;-68
2023/10/28 05:40:10;;;;;;;1.60;0.77;;;22.80;48.10;;;;;;5067232;28;20183;-69
2023/10/28 05:42:38;;;;;;;4.17;0.80;;;22.40;49.00;;;;;;5076160;28;20485;-69
2023/10/28 05:45:07;;;;;;;7.67;1.13;;;22.50;49.30;;;;;;5064832;28;20192;-68
2023/10/28 05:47:35;;;;;;;4.07;0.90;;;22.80;48.00;;;;;;5065273;28;20179;-67
2023/10/28 05:50:05;;;;;;;3.97;0.97;;;23.60;46.90;;;;;;5059408;28;20199;-68
2023/10/28 05:52:38;;;;;;;2.87;1.07;;;23.10;47.50;;;;;;5056871;28;20220;-69
2023/10/28 05:55:07;;;;;;;5.13;0.77;;;23.20;47.40;;;;;;5059081;28;20203;-67
2023/10/28 05:57:35;;;;;;;2.73;0.97;;;23.10;48.00;;;;;;5067218;28;20262;-68
2023/10/28 06:00:02;;;;;;;5.77;1.20;;;23.20;46.70;;;;;;5065054;28;20267;-66
2023/10/28 06:02:29;;;;;;;3.37;1.03;;;22.80;48.10;;;;;;5067118;28;20218;-67
2023/10/28 06:04:56;;;;;;;4.00;1.10;;;22.60;48.60;;;;;;5058070;28;20708;-66
2023/10/28 06:07:24;;;;;;;4.00;1.00;;;22.20;48.50;;;;;;5075537;28;20649;-66
2023/10/28 06:09:51;;;;;;;2.77;0.90;;;21.90;48.70;;;;;;5075352;28;20214;-68
2023/10/28 06:12:20;;;;;;;2.77;0.87;;;21.50;50.20;;;;;;5075584;28;20537;-68
2023/10/28 06:14:47;;;;;;;3.40;1.13;;;21.30;50.00;;;;;;5075294;28;20183;-67
2023/10/28 06:17:14;;;;;;;1.23;0.60;;;21.30;50.70;;;;;;5056437;28;20228;-69
2023/10/28 06:19:42;;;;;;;2.17;0.60;;;21.60;49.90;;;;;;5074784;28;20183;-68
2023/10/28 06:22:11;;;;;;;2.70;0.77;;;21.50;48.40;;;;;;5064042;28;20172;-68
2023/10/28 06:24:39;;;;;;;2.77;0.93;;;21.90;47.30;;;;;;5072467;28;20276;-66
2023/10/28 06:27:08;;;;;;;1.80;0.80;;;22.00;48.20;;;;;;5053453;28;20173;-67
2023/10/28 06:29:35;;;;;;;3.23;0.70;;;21.90;47.60;;;;;;5062785;28;20233;-68
2023/10/28 06:32:03;;;;;;;3.73;1.10;;;22.20;46.40;;;;;;5060078;28;20673;-67
2023/10/28 06:34:30;;;;;;;1.27;0.70;;;21.50;48.40;;;;;;5073386;28;20180;-65
2023/10/28 06:36:58;;;;;;;3.50;1.00;;;21.20;49.20;;;;;;5075510;28;20219;-67
2023/10/28 06:39:25;;;;;;;3.90;1.17;;;21.60;48.50;;;;;;5064231;28;20202;-66
2023/10/28 06:41:53;;;;;;;7.80;3.03;;;22.00;47.00;;;;;;5054125;28;20176;-68
2023/10/28 06:44:22;;;;;;;3.57;1.10;;;21.80;46.80;;;;;;5056622;28;20224;-67
2023/10/28 06:46:49;;;;;;;4.37;1.10;;;21.80;47.00;;;;;;5059610;28;20186;-67
2023/10/28 06:49:17;;;;;;;3.73;1.93;;;22.30;46.20;;;;;;5052895;28;20180;-67
2023/10/28 06:51:45;;;;;;;3.43;1.40;;;22.40;45.70;;;;;;5054949;28;20195;-67
2023/10/28 06:54:13;;;;;;;2.60;0.87;;;22.10;46.00;;;;;;5052992;28;20236;-69
2023/10/28 06:56:40;;;;;;;3.67;0.90;;;22.40;46.00;;;;;;5054938;28;20176;-67
2023/10/28 06:59:07;;;;;;;1.40;0.93;;;23.10;43.90;;;;;;5054868;28;20299;-67
2023/10/28 07:01:34;;;;;;;1.40;0.80;;;23.50;43.10;;;;;;5054596;28;20541;-68
2023/10/28 07:04:02;;;;;;;2.90;0.90;;;22.50;44.90;;;;;;5055484;28;20210;-67
2023/10/28 07:06:31;;;;;;;8.03;1.03;;;22.00;45.70;;;;;;5054635;28;20193;-66
2023/10/28 07:08:58;;;;;;;1.60;0.70;;;21.00;47.50;;;;;;5054586;28;20191;-67
2023/10/28 07:11:26;;;;;;;2.87;0.80;;;20.30;48.90;;;;;;5057473;28;20176;-67
2023/10/28 07:13:53;;;;;;;3.20;0.90;;;19.80;50.80;;;;;;5054362;28;20259;-67
2023/10/28 07:16:20;;;;;;;2.10;0.90;;;19.50;51.80;;;;;;5054607;28;20183;-67
2023/10/28 07:18:48;;;;;;;5.23;1.10;;;19.30;52.00;;;;;;5053299;28;20183;-67
2023/10/28 07:21:16;;;;;;;2.73;1.03;;;19.10;52.50;;;;;;5054450;28;20638;-65
2023/10/28 07:23:43;;;;;;;2.43;0.87;;;19.10;52.40;;;;;;5054468;28;20757;-66
2023/10/28 07:26:12;;;;;;;2.30;0.90;;;19.00;51.60;;;;;;5054337;28;20202;-65
2023/10/28 07:28:40;;;;;;;3.03;1.27;;;19.00;51.70;;;;;;5054113;28;20188;-66
2023/10/28 07:31:07;;;;;;;3.50;1.23;;;18.90;52.60;;;;;;5054384;28;20538;-67
2023/10/28 07:33:35;;;;;;;5.40;1.23;;;18.80;53.50;;;;;;5054309;28;20272;-67
2023/10/28 07:36:04;;;;;;;2.57;1.10;;;18.70;53.90;;;;;;5053893;28;20202;-67
2023/10/28 07:38:32;;;;;;;2.07;0.90;;;18.50;53.80;;;;;;5065810;28;20231;-66
2023/10/28 07:40:59;;;;;;;2.10;1.00;;;18.60;54.50;;;;;;5056930;28;20175;-67
2023/10/28 07:43:26;;;;;;;2.57;0.83;;;18.60;55.00;;;;;;5054044;28;20237;-67
2023/10/28 07:45:54;;;;;;;4.20;0.90;;;18.50;55.20;;;;;;5059843;28;20186;-68
2023/10/28 07:48:21;;;;;;;2.70;1.10;;;18.50;55.30;;;;;;5056222;28;20613;-66
2023/10/28 07:50:48;;;;;;;4.40;1.10;;;18.40;55.10;;;;;;5053408;28;20711;-66
2023/10/28 07:53:17;;;;;;;2.27;0.90;;;18.30;55.30;;;;;;5051539;28;20196;-66
2023/10/28 07:55:44;;;;;;;2.57;1.10;;;18.30;55.80;;;;;;5046541;28;20178;-65
2023/10/28 07:58:12;;;;;;;1.67;0.80;;;18.30;56.10;;;;;;5051548;28;20548;-66
2023/10/28 08:00:39;;;;;;;2.40;0.90;;;18.10;56.40;;;;;;5052098;28;20183;-67
2023/10/28 08:03:08;;;;;;;1.97;1.10;;;18.10;57.00;;;;;;5051712;28;20537;-66
2023/10/28 08:05:35;;;;;;;5.80;1.30;;;18.20;57.20;;;;;;5052722;28;20187;-66
2023/10/28 08:08:03;;;;;;;6.30;1.30;;;18.20;57.30;;;;;;5050450;28;20638;-67
2023/10/28 08:10:30;;;;;;;1.97;1.00;;;18.10;57.40;;;;;;5053315;28;20191;-66
2023/10/28 08:12:58;;;;;;;5.07;1.00;;;18.00;57.20;;;;;;5051444;28;20191;-65
2023/10/28 08:15:25;;;;;;;2.17;1.07;;;17.90;57.40;;;;;;5057611;28;20188;-66
2023/10/28 08:17:53;;;;;;;2.60;0.83;;;17.80;57.50;;;;;;5060830;28;20190;-67
2023/10/28 08:20:20;;;;;;;2.57;0.90;;;17.80;57.10;;;;;;5057869;28;20574;-66
2023/10/28 08:22:47;;;;;;;1.87;0.80;;;17.70;57.30;;;;;;5052671;28;20783;-66
2023/10/28 08:25:17;;;;;;;2.97;0.97;;;17.80;57.70;;;;;;5048251;28;20548;-65
2023/10/28 08:27:47;;;;;;;2.90;1.00;;;17.70;57.80;;;;;;5053551;28;20187;-65
2023/10/28 08:30:17;;;;;;;2.37;1.00;;;17.70;58.30;;;;;;5050529;28;20188;-66
2023/10/28 08:32:45;;;;;;;3.73;1.10;;;17.60;58.90;;;;;;5047281;28;20542;-65
2023/10/28 08:35:12;;;;;;;7.63;1.10;;;17.60;59.70;;;;;;5049444;28;20252;-66
2023/10/28 08:37:40;;;;;;;2.77;1.33;;;17.60;60.20;;;;;;5047202;28;20238;-66
2023/10/28 08:40:11;;;;;;;4.60;1.20;;;17.60;60.60;;;;;;5049118;28;20535;-66
2023/10/28 08:42:38;;;;;;;3.03;1.10;;;17.60;60.90;;;;;;5045475;28;20183;-66
2023/10/28 08:45:08;;;;;;;4.27;1.03;;;17.50;61.40;;;;;;5045362;28;20223;-66
2023/10/28 08:47:40;;;;;;;4.13;0.97;;;17.50;61.60;;;;;;5049998;28;20171;-65
2023/10/28 08:50:08;;;;;;;6.33;1.00;;;17.40;62.10;;;;;;5047821;28;20183;-67
2023/10/28 08:52:40;;;;;;;2.33;1.00;;;17.30;62.40;;;;;;5050161;28;20529;-67
2023/10/28 08:55:10;;;;;;;1.50;0.73;;;17.30;62.90;;;;;;5048480;28;20180;-66
2023/10/28 08:57:45;;;;;;;5.40;1.50;;;17.30;63.40;;;;;;5049317;28;20171;-66
2023/10/28 09:00:17;;;;;;;4.83;1.30;;;17.30;63.60;;;;;;5046215;28;20193;-66
2023/10/28 09:02:47;;;;;;;1.93;0.90;;;17.30;64.50;;;;;;5076992;28;20190;-66
2023/10/28 09:05:15;;;;;;;4.37;1.40;;;17.30;65.10;;;;;;5046403;28;20539;-66
2023/10/28 09:07:46;;;;;;;3.10;1.10;;;17.30;65.30;;;;;;5050019;28;20187;-67
2023/10/28 09:10:15;;;;;;;4.43;0.97;;;17.20;65.70;;;;;;5050026;28;20191;-65
2023/10/28 09:12:44;;;;;;;5.43;1.00;;;17.20;65.90;;;;;;5048139;28;20180;-66
2023/10/28 09:15:12;;;;;;;3.00;1.17;;;17.20;66.00;;;;;;5048460;28;20725;-66
2023/10/28 09:17:40;;;;;;;4.33;1.27;;;17.20;66.30;;;;;;5049359;28;20193;-65
2023/10/28 09:20:11;;;;;;;7.33;1.60;;;17.20;66.70;;;;;;5047841;28;20180;-66
2023/10/28 09:22:42;;;;;;;7.17;1.33;;;17.20;67.10;;;;;;5046810;28;20190;-65
2023/10/28 09:25:15;;;;;;;3.40;1.30;;;17.10;67.20;;;;;;5042941;28;20221;-66
2023/10/28 09:27:45;;;;;;;5.00;1.30;;;17.10;67.50;;;;;;5048957;28;20176;-66
2023/10/28 09:30:13;;;;;;;4.73;1.10;;;17.10;68.10;;;;;;5043624;28;20650;-67
2023/10/28 09:32:40;;;;;;;3.70;1.20;;;17.10;68.50;;;;;;5046525;28;20191;-66
2023/10/28 09:35:09;;;;;;;2.57;1.00;;;17.10;68.50;;;;;;5048830;28;20318;-65
2023/10/28 09:37:38;;;;;;;3.77;1.30;;;17.10;68.70;;;;;;5049300;28;20255;-65
2023/10/28 09:40:08;;;;;;;4.63;1.20;;;17.10;68.90;;;;;;5050115;28;20187;-65
2023/10/28 09:42:38;;;;;;;5.93;1.07;;;17.10;69.30;;;;;;5044295;28;20190;-66
2023/10/28 09:45:09;;;;;;;6.80;1.20;;;17.10;69.60;;;;;;5042666;28;20682;-66
2023/10/28 09:47:42;;;;;;;5.27;1.30;;;17.10;69.70;;;;;;5048728;28;20187;-67
2023/10/28 09:50:16;;;;;;;2.87;1.23;;;17.10;69.90;;;;;;5052857;28;20190;-65
2023/10/28 09:52:48;;;;;;;3.50;1.13;;;17.10;70.10;;;;;;5043954;28;20175;-66
2023/10/28 09:55:20;;;;;;;6.33;1.40;;;17.00;70.30;;;;;;5049645;28;20191;-66
2023/10/28 09:57:51;;;;;;;6.03;1.23;;;17.00;70.60;;;;;;5038283;28;20174;-64
2023/10/28 10:00:23;;;;;;;5.17;1.27;;;17.00;70.30;;;;;;5047331;28;20834;-64
2023/10/28 10:03:28;;;;;;;5.20;1.35;;;17.00;70.00;;;;;;5046013;28;20192;-65
2023/10/28 10:05:56;;;;;;;5.23;1.40;;;17.00;69.80;;;;;;5047141;28;20188;-64
2023/10/28 10:08:25;;;;;;;4.63;1.00;;;17.00;69.50;;;;;;5048259;28;20191;-65
2023/10/28 10:10:57;;;;;;;5.40;1.60;;;16.90;69.60;;;;;;5057067;28;20176;-65
2023/10/28 10:13:25;;;;;;;5.20;2.43;;;16.90;69.30;;;;;;5049529;28;20631;-65
2023/10/28 10:15:59;;;;;;;4.53;1.30;;;16.90;69.60;;;;;;5056603;28;20699;-65
2023/10/28 10:18:51;;;;;;;2.80;1.00;;;16.90;69.60;;;;;;5065118;28;20275;-65
2023/10/28 10:21:19;;;;;;;4.20;1.03;;;16.90;69.70;;;;;;5063117;28;20176;-66
2023/10/28 10:23:51;;;;;;;5.17;1.50;;;16.80;69.20;;;;;;5074741;28;20217;-66
2023/10/28 10:26:31;;;;;;;5.23;1.60;;;16.80;69.60;;;;;;5056122;28;20279;-66
2023/10/28 10:29:00;;;;;;;1.60;1.00;;;16.80;69.40;;;;;;5065024;28;20648;-67
2023/10/28 10:31:37;;;;;;;9.60;1.27;;;16.80;69.60;;;;;;5044742;28;20669;-66
2023/10/28 10:34:10;;;;;;;4.07;1.10;;;16.80;69.50;;;;;;5069331;28;20177;-65
2023/10/28 10:36:44;;;;;;;5.73;1.40;;;16.80;69.10;;;;;;5063892;28;20215;-65
2023/10/28 10:39:17;;;;;;;5.60;1.47;;;16.80;68.70;;;;;;5074317;28;20212;-65
2023/10/28 10:41:49;;;;;;;4.77;1.20;;;16.70;68.60;;;;;;5053159;28;20256;-65
2023/10/28 10:44:33;;;;;;;4.00;1.37;;;16.80;68.50;;;;;;5056438;28;20264;-64
2023/10/28 10:47:02;;;;;;;4.47;1.27;;;16.70;68.50;;;;;;5054282;28;20190;-65
2023/10/28 10:49:31;;;;;;;6.50;1.30;;;16.70;68.20;;;;;;5052934;28;20681;-65
2023/10/28 10:52:00;;;;;;;6.77;1.50;;;16.70;67.90;;;;;;5049003;28;20187;-66
2023/10/28 10:54:33;;;;;;;2.10;1.10;;;16.70;67.70;;;;;;5050536;28;20205;-65
2023/10/28 10:57:01;;;;;;;8.70;1.27;;;16.70;67.70;;;;;;5054437;28;20204;-65
2023/10/28 10:59:32;;;;;;;8.33;1.40;;;16.70;67.80;;;;;;5060033;28;20498;-66
2023/10/28 11:02:02;;;;;;;3.00;0.90;;;16.70;67.70;;;;;;5058353;28;20265;-66
2023/10/28 11:04:30;;;;;;;7.83;1.10;;;16.70;67.50;;;;;;5065861;28;20683;-65
2023/10/28 11:06:58;;;;;;;3.50;1.20;;;16.70;67.60;;;;;;5051059;28;20271;-65
2023/10/28 11:09:25;;;;;;;5.13;1.10;;;16.70;67.80;;;;;;5061860;28;20601;-65
2023/10/28 11:11:55;;;;;;;4.93;1.17;;;16.70;67.90;;;;;;5054427;28;20641;-65
2023/10/28 11:14:24;;;;;;;4.17;1.20;;;16.70;67.40;;;;;;5054331;28;20179;-65
2023/10/28 11:16:51;;;;;;;4.23;1.23;;;16.70;67.50;;;;;;5042102;28;20184;-66
2023/10/28 11:19:19;;;;;;;2.53;1.30;;;16.70;67.50;;;;;;5056456;28;20176;-66
2023/10/28 11:21:47;;;;;;;3.40;0.93;;;16.70;67.50;;;;;;5039668;28;20251;-65
2023/10/28 11:24:16;;;;;;;5.97;1.00;;;16.70;67.50;;;;;;5058524;28;20274;-66
2023/10/28 11:26:49;;;;;;;6.60;1.37;;;16.70;67.60;;;;;;5064053;28;20247;-65
2023/10/28 11:29:17;;;;;;;4.50;1.10;;;16.70;67.70;;;;;;5058242;28;20187;-66
2023/10/28 11:31:46;;;;;;;4.60;1.33;;;16.70;68.00;;;;;;5050832;28;20179;-65
2023/10/28 11:34:14;;;;;;;9.80;1.93;;;16.70;68.10;;;;;;5052640;28;20180;-66
2023/10/28 11:36:41;;;;;;;5.47;1.30;;;16.70;68.30;;;;;;5044064;28;20232;-65
2023/10/28 11:39:13;;;;;;;7.27;1.70;;;16.60;68.40;;;;;;5052107;28;20190;-65
2023/10/28 11:41:44;;;;;;;3.13;1.40;;;16.60;68.50;;;;;;5064360;28;20179;-64
2023/10/28 11:44:12;;;;;;;4.33;1.20;;;16.60;68.70;;;;;;5047422;28;20218;-64
2023/10/28 11:46:39;;;;;;;9.40;1.47;;;16.50;68.80;;;;;;5049280;28;20695;-65
2023/10/28 11:49:10;;;;;;;3.53;1.20;;;16.50;69.10;;;;;;5063931;28;20228;-65
2023/10/28 11:51:37;;;;;;;3.83;1.23;;;16.50;69.30;;;;;;5052677;28;20270;-63
2023/10/28 11:54:05;;;;;;;3.77;1.10;;;16.30;69.60;;;;;;5047040;28;20688;-65
2023/10/28 11:56:32;;;;;;;6.30;1.60;;;16.30;70.10;;;;;;5052941;28;20202;-66
2023/10/28 11:59:01;;;;;;;4.53;1.40;;;16.20;70.10;;;;;;5055201;28;20190;-65
2023/10/28 12:01:31;;;;;;;4.00;1.03;;;16.20;70.40;;;;;;5050670;28;20187;-65
2023/10/28 12:03:59;;;;;;;7.23;1.40;;;16.10;70.70;;;;;;5049979;28;20899;-66
2023/10/28 12:06:26;;;;;;;7.80;2.00;;;16.10;70.90;;;;;;5062760;28;20268;-68
2023/10/28 12:08:53;;;;;;;9.23;1.57;;;16.00;71.10;;;;;;5040171;28;20189;-65
2023/10/28 12:11:21;;;;;;;4.97;1.37;;;15.90;71.70;;;;;;5067221;28;20645;-67
2023/10/28 12:13:51;;;;;;;4.87;1.63;;;15.90;72.00;;;;;;5069254;28;20514;-65
2023/10/28 12:16:18;;;;;;;2.60;1.00;;;15.80;72.50;;;;;;5072446;28;20667;-66
2023/10/28 12:18:46;;;;;;;8.07;1.57;;;15.80;72.50;;;;;;5065147;28;20183;-65
2023/10/28 12:21:17;;;;;;;6.87;1.60;;;15.70;73.10;;;;;;5057235;28;20192;-69
2023/10/28 12:23:46;;;;;;;2.07;0.90;;;15.70;73.30;;;;;;5062474;28;20749;-65
2023/10/28 12:26:13;;;;;;;4.97;1.20;;;15.70;73.30;;;;;;5059284;28;20190;-68
2023/10/28 12:28:41;;;;;;;5.70;1.20;;;15.70;73.40;;;;;;5051853;28;20185;-65
2023/10/28 12:31:08;;;;;;;5.63;1.20;;;15.70;73.60;;;;;;5071322;28;20176;-65
2023/10/28 12:33:35;;;;;;;6.53;1.53;;;15.60;73.40;;;;;;5062132;28;20648;-67
2023/10/28 12:36:03;;;;;;;5.10;1.63;;;15.50;73.50;;;;;;5060579;28;20685;-67
2023/10/28 12:38:42;;;;;;;5.83;1.50;;;15.50;73.50;;;;;;5056541;28;20273;-70
2023/10/28 12:41:12;;;;;;;6.57;1.60;;;15.40;73.90;;;;;;5040237;28;20578;-66
2023/10/28 12:43:43;;;;;;;6.83;2.27;;;15.40;73.90;;;;;;5061763;28;20675;-68
2023/10/28 12:46:11;;;;;;;6.03;1.30;;;15.40;74.20;;;;;;5059846;28;20211;-67
2023/10/28 12:48:38;;;;;;;4.33;1.67;;;15.30;74.30;;;;;;5044803;28;20564;-67
2023/10/28 12:51:06;;;;;;;6.30;1.73;;;15.30;74.70;;;;;;5057261;28;20186;-67
2023/10/28 12:53:34;;;;;;;6.43;1.50;;;15.20;74.50;;;;;;5065778;28;20187;-70
2023/10/28 12:56:02;;;;;;;6.97;1.60;;;15.30;75.20;;;;;;5069134;28;20655;-69